sensor_id;sensor_type;location;lat;lon;timestamp;P1;durP1;ratioP1;P2;durP2;ratioP2
48215;SDS011;34005;48.844;10.098;2023-10-19T05:01:32;20.77;;;16.27;;
48215;SDS011;34005;48.844;10.098;2023-10-19T05:04:02;18.95;;;14.70;;
48215;SDS011;34005;48.844;10.098;2023-10-19T05:06:32;19.90;;;16.50;;
48215;SDS011;34005;48.844;10.098;2023-10-19T05:11:42;18.67;;;16.67;;
48215;SDS011;34005;48.844;10.098;2023-10-19T05:17:12;17.48;;;14.75;;
48215;SDS011;34005;48.844;10.098;2023-10-19T05:19:41;17.40;;;15.52;;
48215;SDS011;34005;48.844;10.098;2023-10-19T05:22:09;18.10;;;15.50;;
48215;SDS011;34005;48.844;10.098;2023-10-19T05:24:37;19.05;;;14.73;;
48215;SDS011;34005;48.844;10.098;2023-10-19T05:27:06;17.75;;;15.32;;
48215;SDS011;34005;48.844;10.098;2023-10-19T05:29:42;18.23;;;15.20;;
48215;SDS011;34005;48.844;10.098;2023-10-19T05:32:15;19.50;;;15.57;;
48215;SDS011;34005;48.844;10.098;2023-10-19T05:41:05;17.15;;;14.57;;
48215;SDS011;34005;48.844;10.098;2023-10-19T05:47:33;15.60;;;13.93;;
48215;SDS011;34005;48.844;10.098;2023-10-19T05:50:09;18.58;;;14.52;;
48215;SDS011;34005;48.844;10.098;2023-10-19T05:53:06;16.73;;;14.32;;
48215;SDS011;34005;48.844;10.098;2023-10-19T05:55:33;17.10;;;14.20;;
48215;SDS011;34005;48.844;10.098;2023-10-19T05:58:02;15.85;;;13.88;;
48215;SDS011;34005;48.844;10.098;2023-10-19T06:00:31;15.15;;;13.55;;
48215;SDS011;34005;48.844;10.098;2023-10-19T06:03:00;14.63;;;13.13;;
48215;SDS011;34005;48.844;10.098;2023-10-19T06:05:28;16.48;;;14.23;;
48215;SDS011;34005;48.844;10.098;2023-10-19T06:07:57;14.48;;;12.57;;
48215;SDS011;34005;48.844;10.098;2023-10-19T06:10:27;15.25;;;13.10;;
48215;SDS011;34005;48.844;10.098;2023-10-19T06:12:55;17.42;;;13.98;;
48215;SDS011;34005;48.844;10.098;2023-10-19T06:15:23;14.15;;;12.60;;
48215;SDS011;34005;48.844;10.098;2023-10-19T06:17:51;15.50;;;13.52;;
48215;SDS011;34005;48.844;10.098;2023-10-19T06:20:20;16.65;;;13.80;;
48215;SDS011;34005;48.844;10.098;2023-10-19T06:22:51;13.95;;;12.38;;
48215;SDS011;34005;48.844;10.098;2023-10-19T06:25:19;17.23;;;13.93;;
48215;SDS011;34005;48.844;10.098;2023-10-19T06:27:48;18.20;;;13.73;;
48215;SDS011;34005;48.844;10.098;2023-10-19T06:30:17;16.38;;;14.05;;
48215;SDS011;34005;48.844;10.098;2023-10-19T06:32:47;16.42;;;14.70;;
48215;SDS011;34005;48.844;10.098;2023-10-19T06:35:17;17.10;;;14.20;;
48215;SDS011;34005;48.844;10.098;2023-10-19T06:37:47;18.67;;;15.20;;
48215;SDS011;34005;48.844;10.098;2023-10-19T06:40:16;18.77;;;15.45;;
48215;SDS011;34005;48.844;10.098;2023-10-19T06:42:44;14.82;;;12.82;;
48215;SDS011;34005;48.844;10.098;2023-10-19T06:45:12;16.10;;;13.70;;
48215;SDS011;34005;48.844;10.098;2023-10-19T06:47:41;16.33;;;14.38;;
48215;SDS011;34005;48.844;10.098;2023-10-19T06:50:11;15.52;;;13.38;;
48215;SDS011;34005;48.844;10.098;2023-10-19T06:52:44;17.27;;;14.20;;
48215;SDS011;34005;48.844;10.098;2023-10-19T06:55:21;14.88;;;13.25;;
48215;SDS011;34005;48.844;10.098;2023-10-19T06:57:50;18.45;;;14.98;;
48215;SDS011;34005;48.844;10.098;2023-10-19T07:00:21;19.63;;;15.23;;
48215;SDS011;34005;48.844;10.098;2023-10-19T07:06:26;17.77;;;13.73;;
48215;SDS011;34005;48.844;10.098;2023-10-19T07:08:53;19.20;;;15.13;;
48215;SDS011;34005;48.844;10.098;2023-10-19T07:11:22;20.00;;;15.77;;
48215;SDS011;34005;48.844;10.098;2023-10-19T07:13:51;19.52;;;15.40;;
48215;SDS011;34005;48.844;10.098;2023-10-19T07:16:18;20.55;;;16.65;;
48215;SDS011;34005;48.844;10.098;2023-10-19T07:18:46;19.33;;;16.08;;
48215;SDS011;34005;48.844;10.098;2023-10-19T07:21:14;22.27;;;17.77;;
48215;SDS011;34005;48.844;10.098;2023-10-19T07:23:45;22.35;;;16.60;;
48215;SDS011;34005;48.844;10.098;2023-10-19T07:26:15;18.17;;;15.50;;
48215;SDS011;34005;48.844;10.098;2023-10-19T07:28:43;19.38;;;15.65;;
48215;SDS011;34005;48.844;10.098;2023-10-19T07:31:11;19.67;;;15.93;;
48215;SDS011;34005;48.844;10.098;2023-10-19T07:33:42;17.45;;;14.70;;
48215;SDS011;34005;48.844;10.098;2023-10-19T07:36:12;19.02;;;15.23;;
48215;SDS011;34005;48.844;10.098;2023-10-19T07:38:41;17.67;;;14.38;;
48215;SDS011;34005;48.844;10.098;2023-10-19T07:41:11;17.40;;;14.40;;
48215;SDS011;34005;48.844;10.098;2023-10-19T07:43:39;15.93;;;13.65;;
48215;SDS011;34005;48.844;10.098;2023-10-19T07:46:07;17.33;;;14.18;;
48215;SDS011;34005;48.844;10.098;2023-10-19T07:48:35;17.73;;;14.50;;
48215;SDS011;34005;48.844;10.098;2023-10-19T07:51:03;18.95;;;15.30;;
48215;SDS011;34005;48.844;10.098;2023-10-19T07:53:30;18.73;;;13.93;;
48215;SDS011;34005;48.844;10.098;2023-10-19T07:55:58;25.25;;;16.17;;
48215;SDS011;34005;48.844;10.098;2023-10-19T07:58:27;22.50;;;15.45;;
48215;SDS011;34005;48.844;10.098;2023-10-19T08:00:56;23.02;;;15.63;;
48215;SDS011;34005;48.844;10.098;2023-10-19T08:03:24;21.33;;;15.93;;
48215;SDS011;34005;48.844;10.098;2023-10-19T08:05:52;19.83;;;15.68;;
48215;SDS011;34005;48.844;10.098;2023-10-19T08:08:20;18.30;;;15.48;;
48215;SDS011;34005;48.844;10.098;2023-10-19T08:10:50;17.42;;;15.05;;
48215;SDS011;34005;48.844;10.098;2023-10-19T08:13:18;16.08;;;13.95;;
48215;SDS011;34005;48.844;10.098;2023-10-19T08:15:47;18.35;;;14.63;;
48215;SDS011;34005;48.844;10.098;2023-10-19T08:18:15;20.92;;;15.20;;
48215;SDS011;34005;48.844;10.098;2023-10-19T08:20:44;19.58;;;14.75;;
48215;SDS011;34005;48.844;10.098;2023-10-19T08:23:12;17.75;;;14.25;;
48215;SDS011;34005;48.844;10.098;2023-10-19T08:25:42;16.60;;;13.65;;
48215;SDS011;34005;48.844;10.098;2023-10-19T08:28:22;22.90;;;13.40;;
48215;SDS011;34005;48.844;10.098;2023-10-19T08:30:51;17.23;;;14.52;;
48215;SDS011;34005;48.844;10.098;2023-10-19T08:33:27;16.55;;;13.75;;
48215;SDS011;34005;48.844;10.098;2023-10-19T08:35:56;17.65;;;14.88;;
48215;SDS011;34005;48.844;10.098;2023-10-19T08:38:26;15.50;;;13.75;;
48215;SDS011;34005;48.844;10.098;2023-10-19T08:40:54;18.70;;;15.05;;
48215;SDS011;34005;48.844;10.098;2023-10-19T08:43:23;18.45;;;14.93;;
48215;SDS011;34005;48.844;10.098;2023-10-19T08:45:53;18.70;;;15.50;;
48215;SDS011;34005;48.844;10.098;2023-10-19T08:48:22;20.05;;;15.98;;
48215;SDS011;34005;48.844;10.098;2023-10-19T08:50:50;20.08;;;15.57;;
48215;SDS011;34005;48.844;10.098;2023-10-19T08:53:19;20.58;;;16.48;;
48215;SDS011;34005;48.844;10.098;2023-10-19T08:55:49;19.17;;;16.25;;
48215;SDS011;34005;48.844;10.098;2023-10-19T08:58:20;17.27;;;14.85;;
48215;SDS011;34005;48.844;10.098;2023-10-19T09:00:49;19.13;;;15.43;;
48215;SDS011;34005;48.844;10.098;2023-10-19T09:03:22;17.33;;;14.30;;
48215;SDS011;34005;48.844;10.098;2023-10-19T09:05:52;18.33;;;13.35;;
48215;SDS011;34005;48.844;10.098;2023-10-19T09:08:20;17.42;;;13.07;;
48215;SDS011;34005;48.844;10.098;2023-10-19T09:10:49;15.65;;;12.43;;
48215;SDS011;34005;48.844;10.098;2023-10-19T09:13:18;14.90;;;12.10;;
48215;SDS011;34005;48.844;10.098;2023-10-19T09:15:48;14.23;;;11.63;;
48215;SDS011;34005;48.844;10.098;2023-10-19T09:18:20;12.70;;;10.63;;
48215;SDS011;34005;48.844;10.098;2023-10-19T09:20:51;12.48;;;10.35;;
48215;SDS011;34005;48.844;10.098;2023-10-19T09:23:29;12.40;;;9.95;;
48215;SDS011;34005;48.844;10.098;2023-10-19T09:25:57;10.68;;;8.90;;
48215;SDS011;34005;48.844;10.098;2023-10-19T09:28:26;14.13;;;9.70;;
48215;SDS011;34005;48.844;10.098;2023-10-19T09:30:54;11.05;;;9.35;;
48215;SDS011;34005;48.844;10.098;2023-10-19T09:33:24;11.98;;;9.40;;
48215;SDS011;34005;48.844;10.098;2023-10-19T09:35:53;12.48;;;10.63;;
48215;SDS011;34005;48.844;10.098;2023-10-19T09:38:22;12.88;;;10.50;;
48215;SDS011;34005;48.844;10.098;2023-10-19T09:40:51;16.30;;;11.10;;
48215;SDS011;34005;48.844;10.098;2023-10-19T09:43:22;10.60;;;9.48;;
48215;SDS011;34005;48.844;10.098;2023-10-19T09:45:57;12.15;;;10.70;;
48215;SDS011;34005;48.844;10.098;2023-10-19T09:48:29;10.43;;;9.32;;
48215;SDS011;34005;48.844;10.098;2023-10-19T09:51:02;12.52;;;10.27;;
48215;SDS011;34005;48.844;10.098;2023-10-19T09:53:30;13.93;;;11.85;;
48215;SDS011;34005;48.844;10.098;2023-10-19T09:55:59;13.02;;;10.85;;
48215;SDS011;34005;48.844;10.098;2023-10-19T09:58:27;12.82;;;10.88;;
48215;SDS011;34005;48.844;10.098;2023-10-19T10:00:57;11.82;;;10.60;;
48215;SDS011;34005;48.844;10.098;2023-10-19T10:03:46;11.30;;;9.95;;
48215;SDS011;34005;48.844;10.098;2023-10-19T10:06:15;11.98;;;9.50;;
48215;SDS011;34005;48.844;10.098;2023-10-19T10:08:46;10.77;;;8.67;;
48215;SDS011;34005;48.844;10.098;2023-10-19T10:11:16;10.13;;;8.45;;
48215;SDS011;34005;48.844;10.098;2023-10-19T10:13:46;10.63;;;8.20;;
48215;SDS011;34005;48.844;10.098;2023-10-19T10:16:17;10.60;;;8.95;;
48215;SDS011;34005;48.844;10.098;2023-10-19T10:18:48;9.77;;;8.60;;
48215;SDS011;34005;48.844;10.098;2023-10-19T10:21:18;9.70;;;8.30;;
48215;SDS011;34005;48.844;10.098;2023-10-19T10:23:48;12.13;;;9.88;;
48215;SDS011;34005;48.844;10.098;2023-10-19T10:26:26;12.10;;;10.10;;
48215;SDS011;34005;48.844;10.098;2023-10-19T10:29:12;10.35;;;9.35;;
48215;SDS011;34005;48.844;10.098;2023-10-19T10:31:46;13.85;;;10.10;;
48215;SDS011;34005;48.844;10.098;2023-10-19T10:37:15;14.90;;;12.50;;
48215;SDS011;34005;48.844;10.098;2023-10-19T10:39:43;15.43;;;12.52;;
48215;SDS011;34005;48.844;10.098;2023-10-19T10:44:48;19.63;;;14.05;;
48215;SDS011;34005;48.844;10.098;2023-10-19T11:04:07;17.75;;;14.95;;
48215;SDS011;34005;48.844;10.098;2023-10-19T11:06:51;20.10;;;15.45;;
48215;SDS011;34005;48.844;10.098;2023-10-19T11:09:27;14.82;;;13.27;;
48215;SDS011;34005;48.844;10.098;2023-10-19T11:33:47;20.15;;;16.63;;
48215;SDS011;34005;48.844;10.098;2023-10-19T11:36:17;22.38;;;16.80;;
48215;SDS011;34005;48.844;10.098;2023-10-19T11:57:25;17.00;;;14.85;;
48215;SDS011;34005;48.844;10.098;2023-10-19T12:05:59;19.15;;;15.73;;
48215;SDS011;34005;48.844;10.098;2023-10-19T12:19:37;24.70;;;17.77;;
48215;SDS011;34005;48.844;10.098;2023-10-19T12:22:16;24.23;;;16.98;;
48215;SDS011;34005;48.844;10.098;2023-10-19T12:46:31;25.80;;;19.55;;
48215;SDS011;34005;48.844;10.098;2023-10-19T12:49:03;21.00;;;17.38;;
48215;SDS011;34005;48.844;10.098;2023-10-19T12:55:33;21.52;;;17.75;;
48215;SDS011;34005;48.844;10.098;2023-10-19T12:58:03;22.38;;;18.73;;
48215;SDS011;34005;48.844;10.098;2023-10-19T13:00:35;20.70;;;18.50;;
48215;SDS011;34005;48.844;10.098;2023-10-19T13:03:08;21.80;;;19.30;;
48215;SDS011;34005;48.844;10.098;2023-10-19T13:05:40;22.17;;;18.77;;
48215;SDS011;34005;48.844;10.098;2023-10-19T13:08:08;25.70;;;21.63;;
48215;SDS011;34005;48.844;10.098;2023-10-19T13:10:40;26.83;;;21.77;;
48215;SDS011;34005;48.844;10.098;2023-10-19T13:13:10;24.10;;;19.63;;
48215;SDS011;34005;48.844;10.098;2023-10-19T13:15:40;27.73;;;20.70;;
48215;SDS011;34005;48.844;10.098;2023-10-19T13:18:10;22.73;;;19.80;;
48215;SDS011;34005;48.844;10.098;2023-10-19T13:20:46;23.63;;;20.58;;
48215;SDS011;34005;48.844;10.098;2023-10-19T13:23:15;26.98;;;19.83;;
48215;SDS011;34005;48.844;10.098;2023-10-19T13:25:43;22.33;;;18.50;;
48215;SDS011;34005;48.844;10.098;2023-10-19T13:28:17;23.52;;;18.50;;
48215;SDS011;34005;48.844;10.098;2023-10-19T13:30:46;22.75;;;18.70;;
48215;SDS011;34005;48.844;10.098;2023-10-19T13:33:16;21.45;;;18.35;;
48215;SDS011;34005;48.844;10.098;2023-10-19T13:35:45;26.75;;;19.05;;
48215;SDS011;34005;48.844;10.098;2023-10-19T13:38:15;23.00;;;18.38;;
48215;SDS011;34005;48.844;10.098;2023-10-19T13:40:43;23.35;;;18.63;;
48215;SDS011;34005;48.844;10.098;2023-10-19T13:43:12;22.40;;;17.10;;
48215;SDS011;34005;48.844;10.098;2023-10-19T13:45:41;17.50;;;15.05;;
48215;SDS011;34005;48.844;10.098;2023-10-19T13:48:10;18.52;;;15.07;;
48215;SDS011;34005;48.844;10.098;2023-10-19T13:50:43;18.65;;;14.40;;
48215;SDS011;34005;48.844;10.098;2023-10-19T13:53:14;16.55;;;13.68;;
48215;SDS011;34005;48.844;10.098;2023-10-19T13:55:42;15.45;;;12.93;;
48215;SDS011;34005;48.844;10.098;2023-10-19T13:58:11;15.57;;;12.48;;
48215;SDS011;34005;48.844;10.098;2023-10-19T14:00:41;13.60;;;12.20;;
48215;SDS011;34005;48.844;10.098;2023-10-19T14:03:10;14.60;;;12.13;;
48215;SDS011;34005;48.844;10.098;2023-10-19T14:05:42;14.70;;;12.18;;
48215;SDS011;34005;48.844;10.098;2023-10-19T14:08:14;12.63;;;11.05;;
48215;SDS011;34005;48.844;10.098;2023-10-19T14:10:43;13.50;;;10.95;;
48215;SDS011;34005;48.844;10.098;2023-10-19T14:13:12;12.25;;;10.98;;
48215;SDS011;34005;48.844;10.098;2023-10-19T14:15:40;12.63;;;10.40;;
48215;SDS011;34005;48.844;10.098;2023-10-19T14:18:08;15.23;;;10.85;;
48215;SDS011;34005;48.844;10.098;2023-10-19T14:20:36;11.93;;;9.32;;
48215;SDS011;34005;48.844;10.098;2023-10-19T14:23:08;11.23;;;8.75;;
48215;SDS011;34005;48.844;10.098;2023-10-19T14:25:37;9.75;;;7.80;;
48215;SDS011;34005;48.844;10.098;2023-10-19T14:28:06;8.50;;;7.70;;
48215;SDS011;34005;48.844;10.098;2023-10-19T14:30:34;10.32;;;9.27;;
48215;SDS011;34005;48.844;10.098;2023-10-19T14:33:01;12.75;;;11.30;;
48215;SDS011;34005;48.844;10.098;2023-10-19T14:35:30;15.48;;;12.82;;
48215;SDS011;34005;48.844;10.098;2023-10-19T14:37:58;15.73;;;13.38;;
48215;SDS011;34005;48.844;10.098;2023-10-19T14:40:28;15.88;;;13.13;;
48215;SDS011;34005;48.844;10.098;2023-10-19T14:42:56;16.60;;;13.30;;
48215;SDS011;34005;48.844;10.098;2023-10-19T14:45:24;15.18;;;12.02;;
48215;SDS011;34005;48.844;10.098;2023-10-19T14:47:55;15.68;;;12.68;;
48215;SDS011;34005;48.844;10.098;2023-10-19T14:50:28;15.05;;;12.38;;
48215;SDS011;34005;48.844;10.098;2023-10-19T14:52:56;16.10;;;13.27;;
48215;SDS011;34005;48.844;10.098;2023-10-19T14:55:25;17.67;;;13.32;;
48215;SDS011;34005;48.844;10.098;2023-10-19T14:57:55;19.25;;;14.15;;
48215;SDS011;34005;48.844;10.098;2023-10-19T15:00:23;19.30;;;15.50;;
48215;SDS011;34005;48.844;10.098;2023-10-19T15:03:01;20.90;;;16.58;;
48215;SDS011;34005;48.844;10.098;2023-10-19T15:05:33;17.48;;;15.23;;
48215;SDS011;34005;48.844;10.098;2023-10-19T15:08:03;16.67;;;14.57;;
48215;SDS011;34005;48.844;10.098;2023-10-19T15:10:39;16.90;;;13.93;;
48215;SDS011;34005;48.844;10.098;2023-10-19T15:13:09;14.90;;;13.25;;
48215;SDS011;34005;48.844;10.098;2023-10-19T15:15:37;14.43;;;12.70;;
48215;SDS011;34005;48.844;10.098;2023-10-19T15:18:04;15.80;;;13.32;;
48215;SDS011;34005;48.844;10.098;2023-10-19T15:20:33;18.83;;;15.15;;
48215;SDS011;34005;48.844;10.098;2023-10-19T15:23:01;19.23;;;15.38;;
48215;SDS011;34005;48.844;10.098;2023-10-19T15:25:30;18.38;;;15.73;;
48215;SDS011;34005;48.844;10.098;2023-10-19T15:27:57;21.08;;;15.40;;
48215;SDS011;34005;48.844;10.098;2023-10-19T15:30:26;20.30;;;16.13;;
48215;SDS011;34005;48.844;10.098;2023-10-19T15:32:55;19.42;;;14.90;;
48215;SDS011;34005;48.844;10.098;2023-10-19T15:35:23;18.98;;;14.90;;
48215;SDS011;34005;48.844;10.098;2023-10-19T15:37:51;26.27;;;15.35;;
48215;SDS011;34005;48.844;10.098;2023-10-19T15:40:22;17.50;;;15.30;;
48215;SDS011;34005;48.844;10.098;2023-10-19T15:42:51;20.65;;;15.45;;
48215;SDS011;34005;48.844;10.098;2023-10-19T15:45:21;18.95;;;15.02;;
48215;SDS011;34005;48.844;10.098;2023-10-19T15:47:51;18.95;;;15.27;;
48215;SDS011;34005;48.844;10.098;2023-10-19T15:50:20;18.55;;;15.40;;
48215;SDS011;34005;48.844;10.098;2023-10-19T15:52:48;18.80;;;15.73;;
48215;SDS011;34005;48.844;10.098;2023-10-19T15:55:18;21.90;;;16.38;;
48215;SDS011;34005;48.844;10.098;2023-10-19T15:57:48;25.95;;;18.05;;
48215;SDS011;34005;48.844;10.098;2023-10-19T16:00:17;23.50;;;17.85;;
48215;SDS011;34005;48.844;10.098;2023-10-19T16:02:52;21.35;;;16.88;;
48215;SDS011;34005;48.844;10.098;2023-10-19T16:05:20;21.23;;;17.25;;
48215;SDS011;34005;48.844;10.098;2023-10-19T16:07:48;25.73;;;18.95;;
48215;SDS011;34005;48.844;10.098;2023-10-19T16:10:16;25.15;;;18.98;;
48215;SDS011;34005;48.844;10.098;2023-10-19T16:12:45;24.17;;;18.73;;
48215;SDS011;34005;48.844;10.098;2023-10-19T16:15:13;22.52;;;18.65;;
48215;SDS011;34005;48.844;10.098;2023-10-19T16:17:42;24.13;;;18.73;;
48215;SDS011;34005;48.844;10.098;2023-10-19T16:20:13;30.15;;;20.42;;
48215;SDS011;34005;48.844;10.098;2023-10-19T16:22:42;30.23;;;20.30;;
48215;SDS011;34005;48.844;10.098;2023-10-19T16:25:10;25.00;;;21.27;;
48215;SDS011;34005;48.844;10.098;2023-10-19T16:27:39;24.40;;;19.77;;
48215;SDS011;34005;48.844;10.098;2023-10-19T16:30:07;24.80;;;20.48;;
48215;SDS011;34005;48.844;10.098;2023-10-19T16:32:39;25.40;;;20.45;;
48215;SDS011;34005;48.844;10.098;2023-10-19T16:35:08;24.45;;;20.52;;
48215;SDS011;34005;48.844;10.098;2023-10-19T16:37:37;24.75;;;20.67;;
48215;SDS011;34005;48.844;10.098;2023-10-19T16:40:05;27.17;;;20.58;;
48215;SDS011;34005;48.844;10.098;2023-10-19T16:42:35;29.95;;;21.13;;
48215;SDS011;34005;48.844;10.098;2023-10-19T16:45:03;27.42;;;21.20;;
48215;SDS011;34005;48.844;10.098;2023-10-19T16:47:32;28.73;;;20.08;;
48215;SDS011;34005;48.844;10.098;2023-10-19T16:50:01;24.02;;;20.38;;
48215;SDS011;34005;48.844;10.098;2023-10-19T16:52:33;25.60;;;18.98;;
48215;SDS011;34005;48.844;10.098;2023-10-19T16:55:02;26.88;;;20.00;;
48215;SDS011;34005;48.844;10.098;2023-10-19T16:57:32;24.10;;;20.85;;
48215;SDS011;34005;48.844;10.098;2023-10-19T17:00:00;26.42;;;20.20;;
48215;SDS011;34005;48.844;10.098;2023-10-19T17:02:28;28.08;;;20.55;;
48215;SDS011;34005;48.844;10.098;2023-10-19T17:04:59;24.77;;;19.27;;
48215;SDS011;34005;48.844;10.098;2023-10-19T17:07:27;23.73;;;19.00;;
48215;SDS011;34005;48.844;10.098;2023-10-19T17:09:54;25.95;;;18.60;;
48215;SDS011;34005;48.844;10.098;2023-10-19T17:12:23;20.02;;;17.02;;
48215;SDS011;34005;48.844;10.098;2023-10-19T17:14:51;20.88;;;17.77;;
48215;SDS011;34005;48.844;10.098;2023-10-19T17:17:19;21.40;;;17.63;;
48215;SDS011;34005;48.844;10.098;2023-10-19T17:19:47;19.38;;;15.57;;
48215;SDS011;34005;48.844;10.098;2023-10-19T17:22:14;17.65;;;15.85;;
48215;SDS011;34005;48.844;10.098;2023-10-19T17:24:42;19.27;;;16.40;;
48215;SDS011;34005;48.844;10.098;2023-10-19T17:27:11;20.08;;;16.90;;
48215;SDS011;34005;48.844;10.098;2023-10-19T17:29:40;19.05;;;16.80;;
48215;SDS011;34005;48.844;10.098;2023-10-19T17:32:08;20.02;;;15.38;;
48215;SDS011;34005;48.844;10.098;2023-10-19T17:34:37;24.60;;;17.52;;
48215;SDS011;34005;48.844;10.098;2023-10-19T17:37:05;24.48;;;17.55;;
48215;SDS011;34005;48.844;10.098;2023-10-19T17:39:33;22.88;;;16.67;;
48215;SDS011;34005;48.844;10.098;2023-10-19T17:42:00;21.73;;;16.98;;
48215;SDS011;34005;48.844;10.098;2023-10-19T17:44:28;23.08;;;17.52;;
48215;SDS011;34005;48.844;10.098;2023-10-19T17:46:58;25.52;;;16.52;;
48215;SDS011;34005;48.844;10.098;2023-10-19T17:49:25;22.20;;;16.80;;
48215;SDS011;34005;48.844;10.098;2023-10-19T17:51:55;20.23;;;15.90;;
48215;SDS011;34005;48.844;10.098;2023-10-19T17:54:22;22.80;;;16.17;;
48215;SDS011;34005;48.844;10.098;2023-10-19T17:56:50;24.13;;;17.40;;
48215;SDS011;34005;48.844;10.098;2023-10-19T17:59:18;23.30;;;16.55;;
48215;SDS011;34005;48.844;10.098;2023-10-19T18:01:46;23.83;;;17.20;;
48215;SDS011;34005;48.844;10.098;2023-10-19T18:04:15;20.10;;;16.45;;
48215;SDS011;34005;48.844;10.098;2023-10-19T18:06:44;18.63;;;16.33;;
48215;SDS011;34005;48.844;10.098;2023-10-19T18:09:13;18.95;;;16.15;;
48215;SDS011;34005;48.844;10.098;2023-10-19T18:11:40;19.35;;;16.73;;
48215;SDS011;34005;48.844;10.098;2023-10-19T18:14:08;18.38;;;15.23;;
48215;SDS011;34005;48.844;10.098;2023-10-19T18:16:35;17.38;;;15.48;;
48215;SDS011;34005;48.844;10.098;2023-10-19T18:19:03;18.27;;;16.05;;
48215;SDS011;34005;48.844;10.098;2023-10-19T18:21:32;16.95;;;15.15;;
48215;SDS011;34005;48.844;10.098;2023-10-19T18:24:00;17.63;;;15.57;;
48215;SDS011;34005;48.844;10.098;2023-10-19T18:26:35;19.05;;;16.05;;
48215;SDS011;34005;48.844;10.098;2023-10-19T18:29:04;17.38;;;15.55;;
48215;SDS011;34005;48.844;10.098;2023-10-19T18:31:32;19.67;;;16.20;;
48215;SDS011;34005;48.844;10.098;2023-10-19T18:34:00;19.30;;;16.25;;
48215;SDS011;34005;48.844;10.098;2023-10-19T18:36:28;17.27;;;14.88;;
48215;SDS011;34005;48.844;10.098;2023-10-19T18:39:01;19.48;;;15.77;;
48215;SDS011;34005;48.844;10.098;2023-10-19T18:41:29;19.60;;;16.30;;
48215;SDS011;34005;48.844;10.098;2023-10-19T18:43:57;20.40;;;15.98;;
48215;SDS011;34005;48.844;10.098;2023-10-19T18:46:25;19.38;;;16.17;;
48215;SDS011;34005;48.844;10.098;2023-10-19T18:48:55;19.70;;;17.13;;
48215;SDS011;34005;48.844;10.098;2023-10-19T18:51:23;18.83;;;16.48;;
48215;SDS011;34005;48.844;10.098;2023-10-19T18:53:51;22.27;;;16.23;;
48215;SDS011;34005;48.844;10.098;2023-10-19T18:56:22;16.98;;;15.18;;
48215;SDS011;34005;48.844;10.098;2023-10-19T18:58:52;22.80;;;16.55;;
48215;SDS011;34005;48.844;10.098;2023-10-19T19:01:19;23.75;;;19.52;;
48215;SDS011;34005;48.844;10.098;2023-10-19T19:03:47;18.70;;;16.65;;
48215;SDS011;34005;48.844;10.098;2023-10-19T19:06:15;19.80;;;16.38;;
48215;SDS011;34005;48.844;10.098;2023-10-19T19:08:42;19.60;;;15.88;;
48215;SDS011;34005;48.844;10.098;2023-10-19T19:11:10;17.85;;;15.50;;
48215;SDS011;34005;48.844;10.098;2023-10-19T19:13:40;21.25;;;16.90;;
48215;SDS011;34005;48.844;10.098;2023-10-19T19:16:08;20.10;;;15.93;;
48215;SDS011;34005;48.844;10.098;2023-10-19T19:18:37;17.67;;;15.30;;
48215;SDS011;34005;48.844;10.098;2023-10-19T19:21:05;22.73;;;17.58;;
48215;SDS011;34005;48.844;10.098;2023-10-19T19:23:35;18.02;;;15.90;;
48215;SDS011;34005;48.844;10.098;2023-10-19T19:26:03;17.70;;;15.48;;
48215;SDS011;34005;48.844;10.098;2023-10-19T19:28:30;18.38;;;15.93;;
48215;SDS011;34005;48.844;10.098;2023-10-19T19:31:01;17.75;;;15.75;;
48215;SDS011;34005;48.844;10.098;2023-10-19T19:33:29;17.83;;;15.95;;
48215;SDS011;34005;48.844;10.098;2023-10-19T19:35:56;18.95;;;15.15;;
48215;SDS011;34005;48.844;10.098;2023-10-19T19:38:24;17.70;;;15.68;;
48215;SDS011;34005;48.844;10.098;2023-10-19T19:40:52;16.58;;;14.73;;
48215;SDS011;34005;48.844;10.098;2023-10-19T19:43:19;18.80;;;15.65;;
48215;SDS011;34005;48.844;10.098;2023-10-19T19:45:47;18.63;;;15.90;;
48215;SDS011;34005;48.844;10.098;2023-10-19T19:48:16;21.65;;;15.95;;
48215;SDS011;34005;48.844;10.098;2023-10-19T19:50:47;47.00;;;33.80;;
48215;SDS011;34005;48.844;10.098;2023-10-19T19:53:15;19.75;;;16.65;;
48215;SDS011;34005;48.844;10.098;2023-10-19T19:55:43;18.63;;;15.60;;
48215;SDS011;34005;48.844;10.098;2023-10-19T19:58:12;20.70;;;16.70;;
48215;SDS011;34005;48.844;10.098;2023-10-19T20:00:41;17.40;;;15.60;;
48215;SDS011;34005;48.844;10.098;2023-10-19T20:03:09;16.40;;;13.98;;
48215;SDS011;34005;48.844;10.098;2023-10-19T20:05:39;17.33;;;14.25;;
48215;SDS011;34005;48.844;10.098;2023-10-19T20:08:07;16.55;;;14.07;;
48215;SDS011;34005;48.844;10.098;2023-10-19T20:10:35;18.90;;;14.65;;
48215;SDS011;34005;48.844;10.098;2023-10-19T20:13:04;17.65;;;15.40;;
48215;SDS011;34005;48.844;10.098;2023-10-19T20:15:32;16.45;;;14.65;;
48215;SDS011;34005;48.844;10.098;2023-10-19T20:18:01;16.65;;;13.52;;
48215;SDS011;34005;48.844;10.098;2023-10-19T20:20:29;17.23;;;14.20;;
48215;SDS011;34005;48.844;10.098;2023-10-19T20:22:58;16.17;;;13.85;;
48215;SDS011;34005;48.844;10.098;2023-10-19T20:25:27;17.25;;;14.05;;
48215;SDS011;34005;48.844;10.098;2023-10-19T20:27:56;15.68;;;14.07;;
48215;SDS011;34005;48.844;10.098;2023-10-19T20:30:25;17.40;;;15.43;;
48215;SDS011;34005;48.844;10.098;2023-10-19T20:32:52;17.95;;;14.35;;
48215;SDS011;34005;48.844;10.098;2023-10-19T20:35:21;17.25;;;15.32;;
48215;SDS011;34005;48.844;10.098;2023-10-19T20:37:50;17.80;;;14.52;;
48215;SDS011;34005;48.844;10.098;2023-10-19T20:40:19;16.48;;;14.70;;
48215;SDS011;34005;48.844;10.098;2023-10-19T20:42:48;19.58;;;14.40;;
48215;SDS011;34005;48.844;10.098;2023-10-19T20:45:19;17.02;;;14.93;;
48215;SDS011;34005;48.844;10.098;2023-10-19T20:47:49;16.77;;;14.48;;
48215;SDS011;34005;48.844;10.098;2023-10-19T20:50:18;18.00;;;14.65;;
48215;SDS011;34005;48.844;10.098;2023-10-19T20:52:46;17.02;;;15.20;;
48215;SDS011;34005;48.844;10.098;2023-10-19T20:55:13;15.70;;;13.80;;
48215;SDS011;34005;48.844;10.098;2023-10-19T20:57:42;18.00;;;15.63;;
48215;SDS011;34005;48.844;10.098;2023-10-19T21:00:12;19.05;;;15.60;;
48215;SDS011;34005;48.844;10.098;2023-10-19T21:02:40;17.48;;;14.77;;
48215;SDS011;34005;48.844;10.098;2023-10-19T21:05:11;17.20;;;15.40;;
48215;SDS011;34005;48.844;10.098;2023-10-19T21:07:41;17.20;;;14.65;;
48215;SDS011;34005;48.844;10.098;2023-10-19T21:10:10;16.83;;;14.73;;
48215;SDS011;34005;48.844;10.098;2023-10-19T21:12:38;16.13;;;14.50;;
48215;SDS011;34005;48.844;10.098;2023-10-19T21:15:08;16.15;;;13.52;;
48215;SDS011;34005;48.844;10.098;2023-10-19T21:17:39;15.88;;;13.73;;
48215;SDS011;34005;48.844;10.098;2023-10-19T21:20:08;20.05;;;17.50;;
48215;SDS011;34005;48.844;10.098;2023-10-19T21:22:39;19.30;;;17.13;;
48215;SDS011;34005;48.844;10.098;2023-10-19T21:25:09;24.70;;;21.05;;
48215;SDS011;34005;48.844;10.098;2023-10-19T21:27:38;27.25;;;20.90;;
48215;SDS011;34005;48.844;10.098;2023-10-19T21:30:08;19.55;;;16.65;;